Time,TemperatureF,DewpointF,PressureIn,WindDirection,WindDirectionDegrees,WindSpeedMPH,WindSpeedGustMPH,Humidity,HourlyPrecipIn,Conditions,Clouds,dailyrainin,SoftwareType,DateUTC
2013-06-12 00:02:00,77.4,72.5,29.96,South,171,0.0,12.0,85,0.00,,,0.00,Wunderground v.1.13,2013-06-12 05:02:00,
2013-06-12 00:07:00,77.4,72.5,29.96,South,171,0.0,12.0,85,0.00,,,0.00,Wunderground v.1.13,2013-06-12 05:07:00,
2013-06-12 00:12:00,77.2,72.3,29.96,South,171,0.0,12.0,85,0.00,,,0.00,Wunderground v.1.13,2013-06-12 05:12:00,
2013-06-12 00:18:00,77.2,72.3,29.96,South,171,0.0,12.0,85,0.00,,,0.00,Wunderground v.1.13,2013-06-12 05:18:00,
2013-06-12 00:23:00,77.2,72.3,29.96,South,171,0.0,12.0,85,0.00,,,0.00,Wunderground v.1.13,2013-06-12 05:23:00,
2013-06-12 00:28:00,77.2,72.3,29.96,South,171,0.0,12.0,85,0.00,,,0.00,Wunderground v.1.13,2013-06-12 05:28:00,
2013-06-12 00:34:00,77.0,72.5,29.96,South,171,0.0,12.0,86,0.00,,,0.00,Wunderground v.1.13,2013-06-12 05:34:00,
2013-06-12 00:40:00,77.0,72.5,29.95,South,171,0.0,12.0,86,0.00,,,0.00,Wunderground v.1.13,2013-06-12 05:40:00,
2013-06-12 00:45:00,77.0,72.5,29.95,South,171,0.0,12.0,86,0.00,,,0.00,Wunderground v.1.13,2013-06-12 05:45:00,
2013-06-12 00:50:00,76.8,72.3,29.95,South,171,0.0,12.0,86,0.00,,,0.00,Wunderground v.1.13,2013-06-12 05:50:00,
2013-06-12 00:55:00,76.8,72.3,29.95,South,171,0.0,12.0,86,0.00,,,0.00,Wunderground v.1.13,2013-06-12 05:55:00,
2013-06-12 01:00:00,76.8,72.3,29.95,South,171,0.0,12.0,86,0.00,,,0.00,Wunderground v.1.13,2013-06-12 06:00:00,
2013-06-12 01:06:00,76.7,72.2,29.95,South,171,0.0,12.0,86,0.00,,,0.00,Wunderground v.1.13,2013-06-12 06:06:00,
2013-06-12 01:11:00,76.7,72.2,29.95,South,171,0.0,12.0,86,0.00,,,0.00,Wunderground v.1.13,2013-06-12 06:11:00,
2013-06-12 01:16:00,76.5,72.0,29.95,South,171,0.0,12.0,86,0.00,,,0.00,Wunderground v.1.13,2013-06-12 06:16:00,
2013-06-12 01:21:00,76.5,72.3,29.95,South,171,0.0,12.0,87,0.00,,,0.00,Wunderground v.1.13,2013-06-12 06:21:00,
2013-06-12 01:26:00,76.5,72.3,29.95,South,171,0.0,12.0,87,0.00,,,0.00,Wunderground v.1.13,2013-06-12 06:26:00,
2013-06-12 01:32:00,76.5,72.3,29.95,South,171,0.0,12.0,87,0.00,,,0.00,Wunderground v.1.13,2013-06-12 06:32:00,
2013-06-12 01:37:00,76.5,72.3,29.95,South,171,0.0,12.0,87,0.00,,,0.00,Wunderground v.1.13,2013-06-12 06:37:00,
2013-06-12 01:42:00,76.5,72.3,29.95,South,171,0.0,12.0,87,0.00,,,0.00,Wunderground v.1.13,2013-06-12 06:42:00,
2013-06-12 01:47:00,76.3,72.1,29.95,South,171,0.0,12.0,87,0.00,,,0.00,Wunderground v.1.13,2013-06-12 06:47:00,
2013-06-12 01:52:00,76.3,72.1,29.94,South,171,0.0,12.0,87,0.00,,,0.00,Wunderground v.1.13,2013-06-12 06:52:00,
2013-06-12 01:57:00,76.3,72.1,29.94,South,171,0.0,12.0,87,0.00,,,0.00,Wunderground v.1.13,2013-06-12 06:57:00,
2013-06-12 02:03:00,76.1,71.9,29.94,South,171,0.0,12.0,87,0.00,,,0.00,Wunderground v.1.13,2013-06-12 07:03:00,
2013-06-12 02:08:00,76.1,71.9,29.94,South,171,0.0,12.0,87,0.00,,,0.00,Wunderground v.1.13,2013-06-12 07:08:00,
2013-06-12 02:14:00,76.0,71.8,29.94,South,171,0.0,12.0,87,0.00,,,0.00,Wunderground v.1.13,2013-06-12 07:14:00,
2013-06-12 02:19:00,76.0,71.8,29.94,South,171,0.0,12.0,87,0.00,,,0.00,Wunderground v.1.13,2013-06-12 07:19:00,
2013-06-12 02:24:00,75.8,71.7,29.93,South,171,0.0,12.0,87,0.00,,,0.00,Wunderground v.1.13,2013-06-12 07:24:00,
2013-06-12 02:30:00,75.8,71.7,29.93,South,171,0.0,12.0,87,0.00,,,0.00,Wunderground v.1.13,2013-06-12 07:30:00,
2013-06-12 02:35:00,75.8,72.0,29.93,South,171,0.0,12.0,88,0.00,,,0.00,Wunderground v.1.13,2013-06-12 07:35:00,
2013-06-12 02:40:00,75.8,72.0,29.93,South,171,0.0,12.0,88,0.00,,,0.00,Wunderground v.1.13,2013-06-12 07:40:00,
2013-06-12 02:46:00,75.6,71.8,29.93,South,171,0.0,12.0,88,0.00,,,0.00,Wunderground v.1.13,2013-06-12 07:46:00,
2013-06-12 02:51:00,75.6,71.8,29.93,South,171,0.0,12.0,88,0.00,,,0.00,Wunderground v.1.13,2013-06-12 07:51:00,
2013-06-12 02:56:00,75.4,71.6,29.93,South,171,0.0,12.0,88,0.00,,,0.00,Wunderground v.1.13,2013-06-12 07:56:00,
2013-06-12 03:02:00,75.4,71.6,29.93,South,171,0.0,12.0,88,0.00,,,0.00,Wunderground v.1.13,2013-06-12 08:02:00,
2013-06-12 03:07:00,75.4,71.6,29.93,South,171,0.0,12.0,88,0.00,,,0.00,Wunderground v.1.13,2013-06-12 08:07:00,
2013-06-12 03:12:00,75.4,71.6,29.93,South,171,0.0,12.0,88,0.00,,,0.00,Wunderground v.1.13,2013-06-12 08:12:00,
2013-06-12 03:17:00,75.4,71.6,29.93,South,171,0.0,12.0,88,0.00,,,0.00,Wunderground v.1.13,2013-06-12 08:17:00,
2013-06-12 03:23:00,75.4,71.6,29.93,South,171,0.0,12.0,88,0.00,,,0.00,Wunderground v.1.13,2013-06-12 08:23:00,
2013-06-12 03:28:00,75.4,71.6,29.93,South,171,0.0,12.0,88,0.00,,,0.00,Wunderground v.1.13,2013-06-12 08:28:00,
2013-06-12 03:34:00,75.4,71.9,29.93,South,171,0.0,12.0,89,0.00,,,0.00,Wunderground v.1.13,2013-06-12 08:34:00,
2013-06-12 03:39:00,75.3,71.8,29.94,South,171,0.0,12.0,89,0.00,,,0.00,Wunderground v.1.13,2013-06-12 08:39:00,
2013-06-12 03:44:00,75.3,71.5,29.94,South,171,0.0,12.0,88,0.00,,,0.00,Wunderground v.1.13,2013-06-12 08:44:00,
2013-06-12 03:50:00,75.1,71.6,29.94,South,171,0.0,12.0,89,0.00,,,0.00,Wunderground v.1.13,2013-06-12 08:50:00,
2013-06-12 03:55:00,75.1,71.6,29.94,South,171,0.0,12.0,89,0.00,,,0.00,Wunderground v.1.13,2013-06-12 08:55:00,
2013-06-12 04:00:00,74.9,71.4,29.94,South,171,0.0,12.0,89,0.00,,,0.00,Wunderground v.1.13,2013-06-12 09:00:00,
2013-06-12 04:06:00,74.9,71.4,29.95,South,171,0.0,12.0,89,0.00,,,0.00,Wunderground v.1.13,2013-06-12 09:06:00,
2013-06-12 04:12:00,74.7,71.2,29.95,South,171,0.0,12.0,89,0.00,,,0.00,Wunderground v.1.13,2013-06-12 09:12:00,
2013-06-12 04:17:00,74.7,71.2,29.95,South,171,0.0,12.0,89,0.00,,,0.00,Wunderground v.1.13,2013-06-12 09:17:00,
2013-06-12 04:22:00,74.6,71.1,29.95,South,171,0.0,12.0,89,0.00,,,0.00,Wunderground v.1.13,2013-06-12 09:22:00,
2013-06-12 04:28:00,74.6,71.1,29.95,South,171,0.0,12.0,89,0.00,,,0.00,Wunderground v.1.13,2013-06-12 09:28:00,
2013-06-12 04:33:00,74.4,70.9,29.95,South,171,0.0,12.0,89,0.00,,,0.00,Wunderground v.1.13,2013-06-12 09:33:00,
2013-06-12 04:38:00,74.4,70.9,29.95,South,171,0.0,12.0,89,0.00,,,0.00,Wunderground v.1.13,2013-06-12 09:38:00,
2013-06-12 04:44:00,74.2,70.7,29.95,South,171,0.0,12.0,89,0.00,,,0.00,Wunderground v.1.13,2013-06-12 09:44:00,
2013-06-12 04:49:00,74.2,70.7,29.95,South,171,0.0,12.0,89,0.00,,,0.00,Wunderground v.1.13,2013-06-12 09:49:00,
2013-06-12 04:54:00,74.2,70.7,29.96,South,171,0.0,12.0,89,0.00,,,0.00,Wunderground v.1.13,2013-06-12 09:54:00,
2013-06-12 04:59:00,74.2,70.7,29.96,South,171,0.0,12.0,89,0.00,,,0.00,Wunderground v.1.13,2013-06-12 09:59:00,
2013-06-12 05:05:00,74.2,70.7,29.96,South,171,0.0,12.0,89,0.00,,,0.00,Wunderground v.1.13,2013-06-12 10:05:00,
2013-06-12 05:10:00,74.2,70.7,29.96,South,171,0.0,12.0,89,0.00,,,0.00,Wunderground v.1.13,2013-06-12 10:10:00,
2013-06-12 05:15:00,74.2,70.7,29.96,South,171,0.0,12.0,89,0.00,,,0.00,Wunderground v.1.13,2013-06-12 10:15:00,
2013-06-12 05:21:00,74.2,70.7,29.96,South,171,0.0,12.0,89,0.00,,,0.00,Wunderground v.1.13,2013-06-12 10:21:00,
2013-06-12 05:27:00,74.2,70.7,29.96,South,171,0.0,12.0,89,0.00,,,0.00,Wunderground v.1.13,2013-06-12 10:27:00,
2013-06-12 05:32:00,74.2,70.7,29.96,South,171,0.0,12.0,89,0.00,,,0.00,Wunderground v.1.13,2013-06-12 10:32:00,
2013-06-12 05:37:00,74.0,70.6,29.96,South,171,0.0,12.0,89,0.00,,,0.00,Wunderground v.1.13,2013-06-12 10:37:00,
2013-06-12 05:43:00,74.0,70.6,29.96,South,171,0.0,12.0,89,0.00,,,0.00,Wunderground v.1.13,2013-06-12 10:43:00,
2013-06-12 05:48:00,73.9,70.5,29.96,South,171,0.0,12.0,89,0.00,,,0.00,Wunderground v.1.13,2013-06-12 10:48:00,
2013-06-12 05:53:00,73.9,70.5,29.97,South,171,0.0,12.0,89,0.00,,,0.00,Wunderground v.1.13,2013-06-12 10:53:00,
2013-06-12 05:59:00,73.9,70.5,29.97,South,171,0.0,12.0,89,0.00,,,0.00,Wunderground v.1.13,2013-06-12 10:59:00,
2013-06-12 06:04:00,73.7,70.3,29.97,South,171,0.0,12.0,89,0.00,,,0.00,Wunderground v.1.13,2013-06-12 11:04:00,
2013-06-12 06:10:00,73.9,70.8,29.97,South,171,0.0,12.0,90,0.00,,,0.00,Wunderground v.1.13,2013-06-12 11:10:00,
2013-06-12 06:15:00,73.9,70.8,29.97,South,171,0.0,12.0,90,0.00,,,0.00,Wunderground v.1.13,2013-06-12 11:15:00,
2013-06-12 06:20:00,74.0,70.9,29.97,South,171,0.0,12.0,90,0.00,,,0.00,Wunderground v.1.13,2013-06-12 11:20:00,
2013-06-12 06:25:00,74.0,70.9,29.98,South,171,0.0,12.0,90,0.00,,,0.00,Wunderground v.1.13,2013-06-12 11:25:00,
2013-06-12 06:30:00,74.0,70.9,29.98,South,171,0.0,12.0,90,0.00,,,0.00,Wunderground v.1.13,2013-06-12 11:30:00,
2013-06-12 06:36:00,74.0,70.9,29.98,South,171,0.0,12.0,90,0.00,,,0.00,Wunderground v.1.13,2013-06-12 11:36:00,
2013-06-12 06:41:00,74.2,71.1,29.98,South,171,0.0,12.0,90,0.00,,,0.00,Wunderground v.1.13,2013-06-12 11:41:00,
2013-06-12 06:46:00,74.2,71.1,29.98,South,171,0.0,12.0,90,0.00,,,0.00,Wunderground v.1.13,2013-06-12 11:46:00,
2013-06-12 06:51:00,74.4,71.3,29.98,South,171,0.0,12.0,90,0.00,,,0.00,Wunderground v.1.13,2013-06-12 11:51:00,
2013-06-12 06:56:00,74.6,71.5,29.98,South,171,0.0,12.0,90,0.00,,,0.00,Wunderground v.1.13,2013-06-12 11:56:00,
2013-06-12 07:02:00,74.9,71.8,29.98,South,171,0.0,12.0,90,0.00,,,0.00,Wunderground v.1.13,2013-06-12 12:02:00,
2013-06-12 07:08:00,75.1,72.3,29.98,South,171,0.0,12.0,91,0.00,,,0.00,Wunderground v.1.13,2013-06-12 12:08:00,
2013-06-12 07:13:00,75.3,72.5,29.98,South,171,0.0,12.0,91,0.00,,,0.00,Wunderground v.1.13,2013-06-12 12:13:00,
2013-06-12 07:18:00,75.6,72.8,29.98,South,171,0.0,12.0,91,0.00,,,0.00,Wunderground v.1.13,2013-06-12 12:18:00,
2013-06-12 07:23:00,76.1,73.3,29.98,South,171,0.0,12.0,91,0.00,,,0.00,Wunderground v.1.13,2013-06-12 12:23:00,
2013-06-12 07:29:00,76.7,73.9,29.98,WSW,251,0.0,12.0,91,0.00,,,0.00,Wunderground v.1.13,2013-06-12 12:29:00,
2013-06-12 07:34:00,77.2,74.4,29.98,West,281,0.0,12.0,91,0.00,,,0.00,Wunderground v.1.13,2013-06-12 12:34:00,
2013-06-12 07:40:00,77.9,74.7,29.98,WNW,288,1.0,1.0,90,0.00,,,0.00,Wunderground v.1.13,2013-06-12 12:40:00,
2013-06-12 07:45:00,78.3,75.1,29.98,NW,318,1.0,1.0,90,0.00,,,0.00,Wunderground v.1.13,2013-06-12 12:45:00,
2013-06-12 07:51:00,78.6,75.1,29.99,NW,306,1.0,3.0,89,0.00,,,0.00,Wunderground v.1.13,2013-06-12 12:51:00,
2013-06-12 07:56:00,78.8,75.3,29.99,NW,308,1.0,12.0,89,0.00,,,0.00,Wunderground v.1.13,2013-06-12 12:56:00,
2013-06-12 08:02:00,79.2,75.7,29.99,NNW,335,0.0,12.0,89,0.00,,,0.00,Wunderground v.1.13,2013-06-12 13:02:00,
2013-06-12 08:07:00,79.4,75.9,29.99,NNW,333,1.0,6.0,89,0.00,,,0.00,Wunderground v.1.13,2013-06-12 13:07:00,
2013-06-12 08:12:00,79.6,76.1,29.99,NNW,328,2.0,12.0,89,0.00,,,0.00,Wunderground v.1.13,2013-06-12 13:12:00,
2013-06-12 08:17:00,79.8,75.9,29.99,NW,304,2.0,12.0,88,0.00,,,0.00,Wunderground v.1.13,2013-06-12 13:17:00,
2013-06-12 08:22:00,79.9,76.0,29.99,WNW,292,2.0,12.0,88,0.00,,,0.00,Wunderground v.1.13,2013-06-12 13:22:00,
2013-06-12 08:27:00,80.3,76.4,29.99,WNW,295,2.0,12.0,88,0.00,,,0.00,Wunderground v.1.13,2013-06-12 13:27:00,
2013-06-12 08:32:00,80.5,76.3,29.99,NW,311,3.0,12.0,87,0.00,,,0.00,Wunderground v.1.13,2013-06-12 13:32:00,
2013-06-12 08:38:00,80.7,76.5,29.99,WNW,301,3.0,12.0,87,0.00,,,0.00,Wunderground v.1.13,2013-06-12 13:38:00,
2013-06-12 08:43:00,80.9,76.3,29.99,NW,315,3.0,12.0,86,0.00,,,0.00,Wunderground v.1.13,2013-06-12 13:43:00,
2013-06-12 08:48:00,80.9,76.3,29.99,NW,316,4.0,12.0,86,0.00,,,0.00,Wunderground v.1.13,2013-06-12 13:48:00,
2013-06-12 08:53:00,81.1,76.5,29.99,WNW,301,3.0,12.0,86,0.00,,,0.00,Wunderground v.1.13,2013-06-12 13:53:00,
2013-06-12 08:58:00,81.2,76.3,29.99,WNW,295,1.0,12.0,85,0.00,,,0.00,Wunderground v.1.13,2013-06-12 13:58:00,
2013-06-12 09:04:00,81.4,76.5,29.99,WNW,298,1.0,12.0,85,0.00,,,0.00,Wunderground v.1.13,2013-06-12 14:04:00,
2013-06-12 09:09:00,81.6,76.6,29.99,WNW,292,2.0,12.0,85,0.00,,,0.00,Wunderground v.1.13,2013-06-12 14:09:00,
2013-06-12 09:14:00,81.8,76.8,29.99,WNW,301,1.0,12.0,85,0.00,,,0.00,Wunderground v.1.13,2013-06-12 14:14:00,
2013-06-12 09:19:00,82.0,76.7,29.99,NNW,328,1.0,12.0,84,0.00,,,0.00,Wunderground v.1.13,2013-06-12 14:19:00,
2013-06-12 09:24:00,82.2,76.9,29.99,NW,312,2.0,12.0,84,0.00,,,0.00,Wunderground v.1.13,2013-06-12 14:24:00,
2013-06-12 09:30:00,82.2,76.5,29.99,WNW,288,1.0,1.0,83,0.00,,,0.00,Wunderground v.1.13,2013-06-12 14:30:00,
2013-06-12 09:35:00,82.4,76.7,29.99,SSE,164,0.0,12.0,83,0.00,,,0.00,Wunderground v.1.13,2013-06-12 14:35:00,
2013-06-12 09:40:00,82.6,76.9,29.98,NW,326,0.0,12.0,83,0.00,,,0.00,Wunderground v.1.13,2013-06-12 14:40:00,
2013-06-12 09:45:00,83.0,76.9,29.98,NW,326,0.0,12.0,82,0.00,,,0.00,Wunderground v.1.13,2013-06-12 14:45:00,
2013-06-12 09:50:00,83.0,76.9,29.98,NW,325,0.0,12.0,82,0.00,,,0.00,Wunderground v.1.13,2013-06-12 14:50:00,
2013-06-12 09:56:00,83.2,76.8,29.98,NNW,336,0.0,12.0,81,0.00,,,0.00,Wunderground v.1.13,2013-06-12 14:56:00,
2013-06-12 10:01:00,83.2,76.8,29.98,WNW,292,1.0,12.0,81,0.00,,,0.00,Wunderground v.1.13,2013-06-12 15:01:00,
2013-06-12 10:06:00,83.4,76.6,29.98,WNW,292,1.0,12.0,80,0.00,,,0.00,Wunderground v.1.13,2013-06-12 15:06:00,
2013-06-12 10:11:00,83.6,76.4,29.98,NW,306,0.0,12.0,79,0.00,,,0.00,Wunderground v.1.13,2013-06-12 15:11:00,
2013-06-12 10:16:00,83.8,76.6,29.98,NW,306,0.0,12.0,79,0.00,,,0.00,Wunderground v.1.13,2013-06-12 15:16:00,
2013-06-12 10:22:00,84.0,76.4,29.98,NW,306,1.0,12.0,78,0.00,,,0.00,Wunderground v.1.13,2013-06-12 15:22:00,
2013-06-12 10:27:00,84.1,76.5,29.98,NW,323,1.0,12.0,78,0.00,,,0.00,Wunderground v.1.13,2013-06-12 15:27:00,
2013-06-12 10:32:00,84.3,76.7,29.98,WNW,301,2.0,12.0,78,0.00,,,0.00,Wunderground v.1.13,2013-06-12 15:32:00,
2013-06-12 10:37:00,84.3,76.3,29.98,WNW,301,2.0,12.0,77,0.00,,,0.00,Wunderground v.1.13,2013-06-12 15:37:00,
2013-06-12 10:42:00,84.5,76.5,29.98,NW,305,1.0,12.0,77,0.00,,,0.00,Wunderground v.1.13,2013-06-12 15:42:00,
2013-06-12 10:48:00,84.9,76.5,29.98,NW,304,0.0,12.0,76,0.00,,,0.00,Wunderground v.1.13,2013-06-12 15:48:00,
2013-06-12 10:53:00,84.9,76.5,29.98,WNW,296,1.0,12.0,76,0.00,,,0.00,Wunderground v.1.13,2013-06-12 15:53:00,
2013-06-12 10:58:00,85.3,76.5,29.98,WNW,296,0.0,12.0,75,0.00,,,0.00,Wunderground v.1.13,2013-06-12 15:58:00,
2013-06-12 11:03:00,85.3,76.5,29.98,NW,323,0.0,12.0,75,0.00,,,0.00,Wunderground v.1.13,2013-06-12 16:03:00,
2013-06-12 11:08:00,85.7,76.5,29.98,NW,323,0.0,12.0,74,0.00,,,0.00,Wunderground v.1.13,2013-06-12 16:08:00,
2013-06-12 11:14:00,85.7,76.5,29.98,NW,306,0.0,12.0,74,0.00,,,0.00,Wunderground v.1.13,2013-06-12 16:14:00,
2013-06-12 11:19:00,86.1,76.8,29.98,NW,308,0.0,12.0,74,0.00,,,0.00,Wunderground v.1.13,2013-06-12 16:19:00,
2013-06-12 11:24:00,86.5,76.8,29.98,NW,308,0.0,12.0,73,0.00,,,0.00,Wunderground v.1.13,2013-06-12 16:24:00,
2013-06-12 11:29:00,86.7,77.0,29.98,NW,308,0.0,12.0,73,0.00,,,0.00,Wunderground v.1.13,2013-06-12 16:29:00,
2013-06-12 11:34:00,87.0,76.9,29.98,NE,41,0.0,12.0,72,0.00,,,0.00,Wunderground v.1.13,2013-06-12 16:34:00,
2013-06-12 11:40:00,87.2,76.6,29.98,NE,41,0.0,12.0,71,0.00,,,0.00,Wunderground v.1.13,2013-06-12 16:40:00,
2013-06-12 11:45:00,87.2,76.2,29.98,NE,41,1.0,1.0,70,0.00,,,0.00,Wunderground v.1.13,2013-06-12 16:45:00,
2013-06-12 11:50:00,87.4,76.0,29.98,NE,41,0.0,12.0,69,0.00,,,0.00,Wunderground v.1.13,2013-06-12 16:50:00,
2013-06-12 11:56:00,87.8,76.8,29.98,NE,41,0.0,12.0,70,0.00,,,0.00,Wunderground v.1.13,2013-06-12 16:56:00,
2013-06-12 12:01:00,87.8,76.8,29.98,NE,41,0.0,12.0,70,0.00,,,0.00,Wunderground v.1.13,2013-06-12 17:01:00,
2013-06-12 12:07:00,88.0,77.0,29.98,NE,41,0.0,12.0,70,0.00,,,0.00,Wunderground v.1.13,2013-06-12 17:07:00,
2013-06-12 12:12:00,88.4,77.4,29.98,NE,41,0.0,12.0,70,0.00,,,0.00,Wunderground v.1.13,2013-06-12 17:12:00,
2013-06-12 12:17:00,88.6,77.6,29.98,NE,41,0.0,12.0,70,0.00,,,0.00,Wunderground v.1.13,2013-06-12 17:17:00,
2013-06-12 12:22:00,88.6,77.6,29.98,NE,41,0.0,12.0,70,0.00,,,0.00,Wunderground v.1.13,2013-06-12 17:22:00,
2013-06-12 12:27:00,88.8,76.9,29.98,NE,41,0.0,12.0,68,0.00,,,0.00,Wunderground v.1.13,2013-06-12 17:27:00,
2013-06-12 12:33:00,89.0,77.1,29.98,NE,41,0.0,12.0,68,0.00,,,0.00,Wunderground v.1.13,2013-06-12 17:33:00,
2013-06-12 12:38:00,89.5,77.1,29.98,NE,41,0.0,12.0,67,0.00,,,0.00,Wunderground v.1.13,2013-06-12 17:38:00,
2013-06-12 12:43:00,89.5,77.1,29.98,NE,41,0.0,12.0,67,0.00,,,0.00,Wunderground v.1.13,2013-06-12 17:43:00,
2013-06-12 12:48:00,89.7,77.7,29.98,NE,41,0.0,12.0,68,0.00,,,0.00,Wunderground v.1.13,2013-06-12 17:48:00,
2013-06-12 12:53:00,89.9,78.4,29.98,NE,41,0.0,12.0,69,0.00,,,0.00,Wunderground v.1.13,2013-06-12 17:53:00,
2013-06-12 12:59:00,90.3,78.7,29.98,West,265,0.0,12.0,69,0.00,,,0.00,Wunderground v.1.13,2013-06-12 17:59:00,
2013-06-12 13:04:00,90.5,79.4,29.98,West,265,0.0,12.0,70,0.00,,,0.00,Wunderground v.1.13,2013-06-12 18:04:00,
2013-06-12 13:09:00,90.5,78.5,29.98,SE,131,0.0,12.0,68,0.00,,,0.00,Wunderground v.1.13,2013-06-12 18:09:00,
2013-06-12 13:14:00,90.7,78.7,29.98,SSE,155,0.0,12.0,68,0.00,,,0.00,Wunderground v.1.13,2013-06-12 18:14:00,
2013-06-12 13:19:00,90.5,78.9,29.98,NE,40,0.0,12.0,69,0.00,,,0.00,Wunderground v.1.13,2013-06-12 18:19:00,
2013-06-12 13:25:00,90.5,78.5,29.98,NE,52,0.0,12.0,68,0.00,,,0.00,Wunderground v.1.13,2013-06-12 18:25:00,
2013-06-12 13:30:00,90.3,78.3,29.98,SE,134,0.0,12.0,68,0.00,,,0.00,Wunderground v.1.13,2013-06-12 18:30:00,
2013-06-12 13:35:00,90.3,78.7,29.98,ESE,110,0.0,12.0,69,0.00,,,0.00,Wunderground v.1.13,2013-06-12 18:35:00,
2013-06-12 13:40:00,90.3,78.7,29.97,South,169,0.0,12.0,69,0.00,,,0.00,Wunderground v.1.13,2013-06-12 18:40:00,
2013-06-12 13:45:00,90.5,78.5,29.97,South,188,1.0,12.0,68,0.00,,,0.00,Wunderground v.1.13,2013-06-12 18:45:00,
2013-06-12 13:51:00,90.3,77.8,29.97,NE,40,1.0,12.0,67,0.00,,,0.00,Wunderground v.1.13,2013-06-12 18:51:00,
2013-06-12 13:56:00,90.3,77.8,29.97,NE,41,0.0,12.0,67,0.00,,,0.00,Wunderground v.1.13,2013-06-12 18:56:00,
2013-06-12 14:01:00,90.3,77.8,29.97,NNE,21,0.0,12.0,67,0.00,,,0.00,Wunderground v.1.13,2013-06-12 19:01:00,
2013-06-12 14:06:00,90.1,77.2,29.97,NNE,21,0.0,12.0,66,0.00,,,0.00,Wunderground v.1.13,2013-06-12 19:06:00,
2013-06-12 14:11:00,89.9,77.5,29.96,NNE,21,0.0,12.0,67,0.00,,,0.00,Wunderground v.1.13,2013-06-12 19:11:00,
2013-06-12 14:17:00,89.9,77.5,29.96,NNE,27,0.0,12.0,67,0.00,,,0.00,Wunderground v.1.13,2013-06-12 19:17:00,
2013-06-12 14:22:00,89.9,77.5,29.95,NNE,31,0.0,12.0,67,0.00,,,0.00,Wunderground v.1.13,2013-06-12 19:22:00,
2013-06-12 14:27:00,89.9,77.9,29.95,SSW,195,0.0,12.0,68,0.00,,,0.00,Wunderground v.1.13,2013-06-12 19:27:00,
2013-06-12 14:32:00,89.9,77.5,29.95,SSW,205,0.0,12.0,67,0.00,,,0.00,Wunderground v.1.13,2013-06-12 19:32:00,
2013-06-12 14:38:00,89.9,77.9,29.95,SSW,195,0.0,12.0,68,0.00,,,0.00,Wunderground v.1.13,2013-06-12 19:38:00,
2013-06-12 14:43:00,89.9,77.9,29.95,SSW,195,0.0,12.0,68,0.00,,,0.00,Wunderground v.1.13,2013-06-12 19:43:00,
2013-06-12 14:48:00,90.1,78.1,29.95,SSW,195,0.0,12.0,68,0.00,,,0.00,Wunderground v.1.13,2013-06-12 19:48:00,
2013-06-12 14:53:00,90.3,77.8,29.95,NW,316,0.0,12.0,67,0.00,,,0.00,Wunderground v.1.13,2013-06-12 19:53:00,
2013-06-12 14:59:00,90.1,77.2,29.95,WNW,296,1.0,12.0,66,0.00,,,0.00,Wunderground v.1.13,2013-06-12 19:59:00,
2013-06-12 15:04:00,90.1,76.3,29.95,WNW,287,0.0,12.0,64,0.00,,,0.00,Wunderground v.1.13,2013-06-12 20:04:00,
2013-06-12 15:09:00,90.1,76.3,29.95,NW,309,1.0,12.0,64,0.00,,,0.00,Wunderground v.1.13,2013-06-12 20:09:00,
2013-06-12 15:15:00,90.1,75.8,29.95,WNW,301,1.0,1.0,63,0.00,,,0.00,Wunderground v.1.13,2013-06-12 20:15:00,
2013-06-12 15:20:00,90.1,75.8,29.95,NW,319,1.0,1.0,63,0.00,,,0.00,Wunderground v.1.13,2013-06-12 20:20:00,
2013-06-12 15:25:00,90.3,76.0,29.94,NW,319,0.0,12.0,63,0.00,,,0.00,Wunderground v.1.13,2013-06-12 20:25:00,
2013-06-12 15:30:00,90.5,75.7,29.94,NW,309,1.0,12.0,62,0.00,,,0.00,Wunderground v.1.13,2013-06-12 20:30:00,
2013-06-12 15:35:00,90.3,75.5,29.94,NW,304,3.0,3.0,62,0.00,,,0.00,Wunderground v.1.13,2013-06-12 20:35:00,
2013-06-12 15:40:00,90.3,75.0,29.93,NW,305,4.0,4.0,61,0.00,,,0.00,Wunderground v.1.13,2013-06-12 20:40:00,
2013-06-12 15:45:00,90.3,76.0,29.93,NW,319,3.0,3.0,63,0.00,,,0.00,Wunderground v.1.13,2013-06-12 20:45:00,
2013-06-12 15:50:00,90.5,76.2,29.93,NW,319,1.0,1.0,63,0.00,,,0.00,Wunderground v.1.13,2013-06-12 20:50:00,
2013-06-12 15:55:00,90.7,76.4,29.93,NNW,339,0.0,12.0,63,0.00,,,0.00,Wunderground v.1.13,2013-06-12 20:55:00,
2013-06-12 16:00:00,90.7,76.8,29.93,WNW,284,1.0,12.0,64,0.00,,,0.00,Wunderground v.1.13,2013-06-12 21:00:00,
2013-06-12 16:06:00,91.0,76.2,29.93,NW,304,1.0,12.0,62,0.00,,,0.00,Wunderground v.1.13,2013-06-12 21:06:00,
2013-06-12 16:11:00,91.0,76.2,29.93,WNW,298,0.0,12.0,62,0.00,,,0.00,Wunderground v.1.13,2013-06-12 21:11:00,
2013-06-12 16:16:00,91.0,75.7,29.93,SSW,209,1.0,12.0,61,0.00,,,0.00,Wunderground v.1.13,2013-06-12 21:16:00,
2013-06-12 16:21:00,91.2,75.9,29.93,WNW,289,1.0,12.0,61,0.00,,,0.00,Wunderground v.1.13,2013-06-12 21:21:00,
2013-06-12 16:26:00,91.2,75.9,29.93,NW,308,1.0,2.0,61,0.00,,,0.00,Wunderground v.1.13,2013-06-12 21:26:00,
2013-06-12 16:32:00,91.4,76.5,29.93,ESE,117,1.0,12.0,62,0.00,,,0.00,Wunderground v.1.13,2013-06-12 21:32:00,
2013-06-12 16:37:00,91.4,76.1,29.92,North,0,0.0,12.0,61,0.00,,,0.00,Wunderground v.1.13,2013-06-12 21:37:00,
2013-06-12 16:42:00,91.6,75.7,29.92,North,0,0.0,12.0,60,0.00,,,0.00,Wunderground v.1.13,2013-06-12 21:42:00,
2013-06-12 16:47:00,91.6,75.2,29.92,SW,229,0.0,12.0,59,0.00,,,0.00,Wunderground v.1.13,2013-06-12 21:47:00,
2013-06-12 16:52:00,91.8,75.9,29.92,SSE,164,0.0,12.0,60,0.00,,,0.00,Wunderground v.1.13,2013-06-12 21:52:00,
2013-06-12 16:57:00,91.8,75.4,29.92,NW,304,0.0,12.0,59,0.00,,,0.00,Wunderground v.1.13,2013-06-12 21:57:00,
2013-06-12 17:02:00,91.8,74.9,29.92,ESE,117,1.0,12.0,58,0.00,,,0.00,Wunderground v.1.13,2013-06-12 22:02:00,
2013-06-12 17:07:00,91.6,74.7,29.92,WNW,287,1.0,12.0,58,0.00,,,0.00,Wunderground v.1.13,2013-06-12 22:07:00,
2013-06-12 17:13:00,91.4,74.0,29.92,WNW,296,2.0,12.0,57,0.00,,,0.00,Wunderground v.1.13,2013-06-12 22:13:00,
2013-06-12 17:18:00,91.2,74.4,29.92,SE,138,1.0,12.0,58,0.00,,,0.00,Wunderground v.1.13,2013-06-12 22:18:00,
2013-06-12 17:23:00,91.0,73.7,29.91,WNW,289,1.0,12.0,57,0.00,,,0.00,Wunderground v.1.13,2013-06-12 22:23:00,
2013-06-12 17:29:00,91.0,73.7,29.91,WNW,296,1.0,12.0,57,0.00,,,0.00,Wunderground v.1.13,2013-06-12 22:29:00,
2013-06-12 17:34:00,91.0,73.1,29.91,WSW,243,0.0,12.0,56,0.00,,,0.00,Wunderground v.1.13,2013-06-12 22:34:00,
2013-06-12 17:39:00,91.0,73.7,29.91,SSW,206,0.0,12.0,57,0.00,,,0.00,Wunderground v.1.13,2013-06-12 22:39:00,
2013-06-12 17:45:00,91.0,73.1,29.91,South,169,0.0,12.0,56,0.00,,,0.00,Wunderground v.1.13,2013-06-12 22:45:00,
2013-06-12 17:50:00,91.0,74.2,29.91,SE,131,0.0,12.0,58,0.00,,,0.00,Wunderground v.1.13,2013-06-12 22:50:00,
2013-06-12 17:55:00,91.0,73.7,29.90,SSE,150,0.0,12.0,57,0.00,,,0.00,Wunderground v.1.13,2013-06-12 22:55:00,
2013-06-12 18:01:00,91.2,73.8,29.90,SE,144,0.0,12.0,57,0.00,,,0.00,Wunderground v.1.13,2013-06-12 23:01:00,
2013-06-12 18:06:00,91.2,74.4,29.90,West,271,0.0,12.0,58,0.00,,,0.00,Wunderground v.1.13,2013-06-12 23:06:00,
2013-06-12 18:11:00,91.2,74.4,29.90,North,0,0.0,12.0,58,0.00,,,0.00,Wunderground v.1.13,2013-06-12 23:11:00,
2013-06-12 18:16:00,91.2,74.4,29.90,WNW,289,0.0,12.0,58,0.00,,,0.00,Wunderground v.1.13,2013-06-12 23:16:00,
2013-06-12 18:21:00,91.2,74.4,29.90,NNW,330,0.0,12.0,58,0.00,,,0.00,Wunderground v.1.13,2013-06-12 23:21:00,
2013-06-12 18:26:00,91.2,74.4,29.90,WNW,292,0.0,12.0,58,0.00,,,0.00,Wunderground v.1.13,2013-06-12 23:26:00,
2013-06-12 18:31:00,91.2,74.4,29.90,WNW,302,0.0,12.0,58,0.00,,,0.00,Wunderground v.1.13,2013-06-12 23:31:00,
2013-06-12 18:36:00,91.0,73.7,29.90,WNW,302,0.0,12.0,57,0.00,,,0.00,Wunderground v.1.13,2013-06-12 23:36:00,
2013-06-12 18:41:00,90.7,73.9,29.90,SE,138,0.0,12.0,58,0.00,,,0.00,Wunderground v.1.13,2013-06-12 23:41:00,
2013-06-12 18:46:00,90.7,74.4,29.90,SE,140,0.0,12.0,59,0.00,,,0.00,Wunderground v.1.13,2013-06-12 23:46:00,
2013-06-12 18:51:00,90.7,73.9,29.90,SW,217,0.0,12.0,58,0.00,,,0.00,Wunderground v.1.13,2013-06-12 23:51:00,
2013-06-12 18:56:00,90.5,74.2,29.91,WNW,294,0.0,12.0,59,0.00,,,0.00,Wunderground v.1.13,2013-06-12 23:56:00,
2013-06-12 19:01:00,90.5,74.2,29.91,WNW,294,0.0,12.0,59,0.00,,,0.00,Wunderground v.1.13,2013-06-13 00:01:00,
2013-06-12 19:06:00,90.1,74.3,29.91,SW,219,0.0,12.0,60,0.00,,,0.00,Wunderground v.1.13,2013-06-13 00:06:00,
2013-06-12 19:11:00,89.9,74.6,29.91,NNW,337,0.0,12.0,61,0.00,,,0.00,Wunderground v.1.13,2013-06-13 00:11:00,
2013-06-12 19:16:00,89.7,74.0,29.91,NW,308,1.0,12.0,60,0.00,,,0.00,Wunderground v.1.13,2013-06-13 00:16:00,
2013-06-12 19:21:00,89.3,74.1,29.91,NW,311,1.0,12.0,61,0.00,,,0.00,Wunderground v.1.13,2013-06-13 00:21:00,
2013-06-12 19:26:00,88.6,73.4,29.91,NW,311,0.0,12.0,61,0.00,,,0.00,Wunderground v.1.13,2013-06-13 00:26:00,
2013-06-12 19:31:00,88.4,73.7,29.91,NW,312,0.0,12.0,62,0.00,,,0.00,Wunderground v.1.13,2013-06-13 00:31:00,
2013-06-12 19:36:00,88.0,73.3,29.91,NW,312,0.0,12.0,62,0.00,,,0.00,Wunderground v.1.13,2013-06-13 00:36:00,
2013-06-12 19:41:00,87.6,73.4,29.91,NW,318,0.0,12.0,63,0.00,,,0.00,Wunderground v.1.13,2013-06-13 00:41:00,
2013-06-12 19:46:00,87.4,73.3,29.91,NW,318,0.0,12.0,63,0.00,,,0.00,Wunderground v.1.13,2013-06-13 00:46:00,
2013-06-12 19:51:00,87.0,73.3,29.91,NW,318,0.0,12.0,64,0.00,,,0.00,Wunderground v.1.13,2013-06-13 00:51:00,
2013-06-12 19:56:00,86.5,72.9,29.91,NW,318,0.0,12.0,64,0.00,,,0.00,Wunderground v.1.13,2013-06-13 00:56:00,
2013-06-12 20:01:00,86.3,72.7,29.91,NW,318,0.0,12.0,64,0.00,,,0.00,Wunderground v.1.13,2013-06-13 01:01:00,
2013-06-12 20:06:00,85.9,72.8,29.91,NW,318,0.0,12.0,65,0.00,,,0.00,Wunderground v.1.13,2013-06-13 01:06:00,
2013-06-12 20:11:00,85.5,72.4,29.91,NW,318,0.0,12.0,65,0.00,,,0.00,Wunderground v.1.13,2013-06-13 01:11:00,
2013-06-12 20:16:00,85.3,72.6,29.91,NW,318,0.0,12.0,66,0.00,,,0.00,Wunderground v.1.13,2013-06-13 01:16:00,
2013-06-12 20:22:00,84.9,72.3,29.91,NW,318,0.0,12.0,66,0.00,,,0.00,Wunderground v.1.13,2013-06-13 01:22:00,
2013-06-12 20:27:00,84.7,72.1,29.91,NW,318,0.0,12.0,66,0.00,,,0.00,Wunderground v.1.13,2013-06-13 01:27:00,
2013-06-12 20:32:00,84.3,72.1,29.91,NW,318,0.0,12.0,67,0.00,,,0.00,Wunderground v.1.13,2013-06-13 01:32:00,
2013-06-12 20:38:00,84.1,72.0,29.91,NW,318,0.0,12.0,67,0.00,,,0.00,Wunderground v.1.13,2013-06-13 01:38:00,
2013-06-12 20:43:00,84.0,71.9,29.91,NW,318,0.0,12.0,67,0.00,,,0.00,Wunderground v.1.13,2013-06-13 01:43:00,
2013-06-12 20:48:00,83.6,71.9,29.91,NW,318,0.0,12.0,68,0.00,,,0.00,Wunderground v.1.13,2013-06-13 01:48:00,
2013-06-12 20:54:00,83.4,71.7,29.91,NW,318,0.0,12.0,68,0.00,,,0.00,Wunderground v.1.13,2013-06-13 01:54:00,
2013-06-12 21:00:00,83.2,71.5,29.91,NW,318,0.0,12.0,68,0.00,,,0.00,Wunderground v.1.13,2013-06-13 02:00:00,
2013-06-12 21:05:00,83.0,71.8,29.91,NW,318,0.0,12.0,69,0.00,,,0.00,Wunderground v.1.13,2013-06-13 02:05:00,
2013-06-12 21:10:00,82.8,71.6,29.91,NW,318,0.0,12.0,69,0.00,,,0.00,Wunderground v.1.13,2013-06-13 02:10:00,
2013-06-12 21:16:00,82.6,71.8,29.91,NW,318,0.0,12.0,70,0.00,,,0.00,Wunderground v.1.13,2013-06-13 02:16:00,
2013-06-12 21:21:00,82.4,71.6,29.91,NW,318,0.0,12.0,70,0.00,,,0.00,Wunderground v.1.13,2013-06-13 02:21:00,
2013-06-12 21:26:00,82.4,71.6,29.92,NW,318,0.0,12.0,70,0.00,,,0.00,Wunderground v.1.13,2013-06-13 02:26:00,
2013-06-12 21:31:00,82.2,71.4,29.92,NW,318,0.0,12.0,70,0.00,,,0.00,Wunderground v.1.13,2013-06-13 02:31:00,
2013-06-12 21:36:00,82.0,71.2,29.92,NW,318,0.0,12.0,70,0.00,,,0.00,Wunderground v.1.13,2013-06-13 02:36:00,
2013-06-12 21:41:00,81.8,71.5,29.92,NW,318,0.0,12.0,71,0.00,,,0.00,Wunderground v.1.13,2013-06-13 02:41:00,
2013-06-12 21:47:00,81.8,71.5,29.92,NW,318,0.0,12.0,71,0.00,,,0.00,Wunderground v.1.13,2013-06-13 02:47:00,
2013-06-12 21:52:00,81.6,71.3,29.92,NW,318,0.0,12.0,71,0.00,,,0.00,Wunderground v.1.13,2013-06-13 02:52:00,
2013-06-12 21:57:00,81.6,71.3,29.92,NW,318,0.0,12.0,71,0.00,,,0.00,Wunderground v.1.13,2013-06-13 02:57:00,
2013-06-12 22:02:00,81.4,71.1,29.92,NW,318,0.0,12.0,71,0.00,,,0.00,Wunderground v.1.13,2013-06-13 03:02:00,
2013-06-12 22:07:00,81.4,71.5,29.92,NW,318,0.0,12.0,72,0.00,,,0.00,Wunderground v.1.13,2013-06-13 03:07:00,
2013-06-12 22:13:00,81.4,71.5,29.92,NW,318,0.0,12.0,72,0.00,,,0.00,Wunderground v.1.13,2013-06-13 03:13:00,
2013-06-12 22:18:00,81.2,71.3,29.92,NW,318,0.0,12.0,72,0.00,,,0.00,Wunderground v.1.13,2013-06-13 03:18:00,
2013-06-12 22:23:00,81.2,71.7,29.92,NW,318,0.0,12.0,73,0.00,,,0.00,Wunderground v.1.13,2013-06-13 03:23:00,
2013-06-12 22:28:00,81.2,71.7,29.92,NW,318,0.0,12.0,73,0.00,,,0.00,Wunderground v.1.13,2013-06-13 03:28:00,
2013-06-12 22:33:00,81.1,71.6,29.92,NW,318,0.0,12.0,73,0.00,,,0.00,Wunderground v.1.13,2013-06-13 03:33:00,
2013-06-12 22:39:00,81.1,71.6,29.92,NW,318,0.0,12.0,73,0.00,,,0.00,Wunderground v.1.13,2013-06-13 03:39:00,
2013-06-12 22:44:00,80.9,71.4,29.92,NW,318,0.0,12.0,73,0.00,,,0.00,Wunderground v.1.13,2013-06-13 03:44:00,
2013-06-12 22:49:00,80.9,71.8,29.92,NW,318,0.0,12.0,74,0.00,,,0.00,Wunderground v.1.13,2013-06-13 03:49:00,
2013-06-12 22:54:00,80.9,71.8,29.92,NW,318,0.0,12.0,74,0.00,,,0.00,Wunderground v.1.13,2013-06-13 03:54:00,
2013-06-12 23:00:00,80.9,71.8,29.92,NW,318,0.0,12.0,74,0.00,,,0.00,Wunderground v.1.13,2013-06-13 04:00:00,
2013-06-12 23:01:00,80.9,71.8,29.92,NW,318,0.0,12.0,74,0.00,,,0.00,Wunderground v.1.13,2013-06-13 04:01:00,
2013-06-12 23:02:00,80.7,71.6,29.92,NW,318,0.0,12.0,74,0.00,,,0.00,Wunderground v.1.13,2013-06-13 04:02:00,
2013-06-12 23:04:00,80.7,71.6,29.92,NW,318,0.0,12.0,74,0.00,,,0.00,Wunderground v.1.13,2013-06-13 04:04:00,
2013-06-12 23:10:00,80.7,71.6,29.93,NW,318,0.0,12.0,74,0.00,,,0.00,Wunderground v.1.13,2013-06-13 04:10:00,
2013-06-12 23:12:00,80.7,71.6,29.93,NW,318,0.0,12.0,74,0.00,,,0.00,Wunderground v.1.13,2013-06-13 04:12:00,
2013-06-12 23:14:00,80.7,71.6,29.93,NW,318,0.0,12.0,74,0.00,,,0.00,Wunderground v.1.13,2013-06-13 04:14:00,
2013-06-12 23:19:00,80.5,71.4,29.93,NW,318,0.0,12.0,74,0.00,,,0.00,Wunderground v.1.13,2013-06-13 04:19:00,
2013-06-12 23:24:00,80.5,71.8,29.92,NW,318,0.0,12.0,75,0.00,,,0.00,Wunderground v.1.13,2013-06-13 04:24:00,
2013-06-12 23:29:00,80.3,71.6,29.92,NW,318,0.0,12.0,75,0.00,,,0.00,Wunderground v.1.13,2013-06-13 04:29:00,
2013-06-12 23:34:00,80.3,71.6,29.92,NW,318,0.0,12.0,75,0.00,,,0.00,Wunderground v.1.13,2013-06-13 04:34:00,
2013-06-12 23:40:00,80.3,71.6,29.92,NW,318,0.0,12.0,75,0.00,,,0.00,Wunderground v.1.13,2013-06-13 04:40:00,
2013-06-12 23:45:00,80.3,72.0,29.92,NW,318,0.0,12.0,76,0.00,,,0.00,Wunderground v.1.13,2013-06-13 04:45:00,
2013-06-12 23:50:00,80.3,72.0,29.92,NW,318,0.0,12.0,76,0.00,,,0.00,Wunderground v.1.13,2013-06-13 04:50:00,
2013-06-12 23:55:00,80.3,72.0,29.92,NW,318,0.0,12.0,76,0.00,,,0.00,Wunderground v.1.13,2013-06-13 04:55:00,